sensor_id;sensor_type;location;lat;lon;timestamp;P1;durP1;ratioP1;P2;durP2;ratioP2
11539;SDS011;5826;54.756;9.192;2022-12-18T00:02:00;38.17;;;17.63;;
11539;SDS011;5826;54.756;9.192;2022-12-18T00:04:25;42.73;;;19.60;;
11539;SDS011;5826;54.756;9.192;2022-12-18T00:06:52;39.90;;;18.93;;
11539;SDS011;5826;54.756;9.192;2022-12-18T00:09:18;37.87;;;18.83;;
11539;SDS011;5826;54.756;9.192;2022-12-18T00:11:44;44.17;;;20.10;;
11539;SDS011;5826;54.756;9.192;2022-12-18T00:14:10;41.37;;;19.60;;
11539;SDS011;5826;54.756;9.192;2022-12-18T00:16:37;39.70;;;20.00;;
11539;SDS011;5826;54.756;9.192;2022-12-18T00:19:03;38.57;;;18.33;;
11539;SDS011;5826;54.756;9.192;2022-12-18T00:21:29;38.23;;;18.53;;
11539;SDS011;5826;54.756;9.192;2022-12-18T00:23:57;38.20;;;19.10;;
11539;SDS011;5826;54.756;9.192;2022-12-18T00:26:31;40.13;;;18.17;;
11539;SDS011;5826;54.756;9.192;2022-12-18T00:29:06;36.67;;;17.43;;
11539;SDS011;5826;54.756;9.192;2022-12-18T00:31:35;35.57;;;17.47;;
11539;SDS011;5826;54.756;9.192;2022-12-18T00:34:00;37.03;;;17.43;;
11539;SDS011;5826;54.756;9.192;2022-12-18T00:36:27;35.03;;;16.93;;
11539;SDS011;5826;54.756;9.192;2022-12-18T00:38:57;35.63;;;17.00;;
11539;SDS011;5826;54.756;9.192;2022-12-18T00:41:24;32.43;;;15.17;;
11539;SDS011;5826;54.756;9.192;2022-12-18T00:44:10;36.07;;;16.73;;
11539;SDS011;5826;54.756;9.192;2022-12-18T00:46:37;30.63;;;15.80;;
11539;SDS011;5826;54.756;9.192;2022-12-18T00:49:02;33.53;;;17.03;;
11539;SDS011;5826;54.756;9.192;2022-12-18T00:51:28;35.77;;;16.20;;
11539;SDS011;5826;54.756;9.192;2022-12-18T00:53:54;28.67;;;15.53;;
11539;SDS011;5826;54.756;9.192;2022-12-18T00:56:19;35.27;;;15.90;;
11539;SDS011;5826;54.756;9.192;2022-12-18T00:58:48;33.70;;;15.23;;
11539;SDS011;5826;54.756;9.192;2022-12-18T01:01:14;33.17;;;16.53;;
11539;SDS011;5826;54.756;9.192;2022-12-18T01:03:40;32.87;;;16.23;;
11539;SDS011;5826;54.756;9.192;2022-12-18T01:06:09;30.90;;;14.63;;
11539;SDS011;5826;54.756;9.192;2022-12-18T01:08:36;29.63;;;14.33;;
11539;SDS011;5826;54.756;9.192;2022-12-18T01:11:09;30.47;;;14.93;;
11539;SDS011;5826;54.756;9.192;2022-12-18T01:13:36;29.93;;;14.83;;
11539;SDS011;5826;54.756;9.192;2022-12-18T01:16:02;32.00;;;15.33;;
11539;SDS011;5826;54.756;9.192;2022-12-18T01:18:28;28.93;;;14.70;;
11539;SDS011;5826;54.756;9.192;2022-12-18T01:20:53;29.77;;;15.03;;
11539;SDS011;5826;54.756;9.192;2022-12-18T01:23:19;28.30;;;13.90;;
11539;SDS011;5826;54.756;9.192;2022-12-18T01:25:44;30.43;;;15.23;;
11539;SDS011;5826;54.756;9.192;2022-12-18T01:28:10;28.07;;;14.73;;
11539;SDS011;5826;54.756;9.192;2022-12-18T01:30:36;28.93;;;14.87;;
11539;SDS011;5826;54.756;9.192;2022-12-18T01:33:03;29.67;;;14.13;;
11539;SDS011;5826;54.756;9.192;2022-12-18T01:35:29;30.67;;;15.30;;
11539;SDS011;5826;54.756;9.192;2022-12-18T01:37:55;27.47;;;13.87;;
11539;SDS011;5826;54.756;9.192;2022-12-18T01:40:21;25.53;;;14.07;;
11539;SDS011;5826;54.756;9.192;2022-12-18T01:42:52;27.20;;;14.00;;
11539;SDS011;5826;54.756;9.192;2022-12-18T01:47:50;26.03;;;13.40;;
11539;SDS011;5826;54.756;9.192;2022-12-18T01:50:35;29.97;;;15.00;;
11539;SDS011;5826;54.756;9.192;2022-12-18T01:53:07;30.17;;;14.60;;
11539;SDS011;5826;54.756;9.192;2022-12-18T01:55:42;28.83;;;14.60;;
11539;SDS011;5826;54.756;9.192;2022-12-18T01:58:11;29.43;;;14.23;;
11539;SDS011;5826;54.756;9.192;2022-12-18T02:00:37;30.33;;;15.50;;
11539;SDS011;5826;54.756;9.192;2022-12-18T02:03:03;29.63;;;14.13;;
11539;SDS011;5826;54.756;9.192;2022-12-18T02:05:37;30.53;;;15.60;;
11539;SDS011;5826;54.756;9.192;2022-12-18T02:08:22;27.60;;;13.43;;
11539;SDS011;5826;54.756;9.192;2022-12-18T02:10:55;31.93;;;14.90;;
11539;SDS011;5826;54.756;9.192;2022-12-18T02:13:26;29.17;;;13.50;;
11539;SDS011;5826;54.756;9.192;2022-12-18T02:16:24;27.60;;;13.93;;
11539;SDS011;5826;54.756;9.192;2022-12-18T02:19:15;27.57;;;13.10;;
11539;SDS011;5826;54.756;9.192;2022-12-18T02:27:24;30.67;;;14.07;;
11539;SDS011;5826;54.756;9.192;2022-12-18T02:29:51;31.03;;;14.57;;
11539;SDS011;5826;54.756;9.192;2022-12-18T02:32:20;29.63;;;14.07;;
11539;SDS011;5826;54.756;9.192;2022-12-18T02:34:50;31.80;;;14.67;;
11539;SDS011;5826;54.756;9.192;2022-12-18T02:37:18;28.07;;;14.20;;
11539;SDS011;5826;54.756;9.192;2022-12-18T02:39:45;31.47;;;14.57;;
11539;SDS011;5826;54.756;9.192;2022-12-18T02:42:12;26.30;;;13.80;;
11539;SDS011;5826;54.756;9.192;2022-12-18T02:44:44;33.43;;;15.20;;
11539;SDS011;5826;54.756;9.192;2022-12-18T02:47:12;31.47;;;15.47;;
11539;SDS011;5826;54.756;9.192;2022-12-18T02:52:19;29.57;;;14.53;;
11539;SDS011;5826;54.756;9.192;2022-12-18T02:55:09;27.97;;;13.37;;
11539;SDS011;5826;54.756;9.192;2022-12-18T02:57:46;27.30;;;14.23;;
11539;SDS011;5826;54.756;9.192;2022-12-18T03:00:26;31.43;;;15.17;;
11539;SDS011;5826;54.756;9.192;2022-12-18T03:03:03;27.87;;;14.30;;
11539;SDS011;5826;54.756;9.192;2022-12-18T03:05:36;29.03;;;14.13;;
11539;SDS011;5826;54.756;9.192;2022-12-18T03:08:14;26.33;;;12.97;;
11539;SDS011;5826;54.756;9.192;2022-12-18T03:11:00;29.10;;;14.47;;
11539;SDS011;5826;54.756;9.192;2022-12-18T03:13:37;27.37;;;14.63;;
11539;SDS011;5826;54.756;9.192;2022-12-18T03:16:06;27.40;;;14.53;;
11539;SDS011;5826;54.756;9.192;2022-12-18T03:18:35;24.83;;;14.50;;
11539;SDS011;5826;54.756;9.192;2022-12-18T03:21:12;28.70;;;14.30;;
11539;SDS011;5826;54.756;9.192;2022-12-18T03:23:40;27.77;;;13.70;;
11539;SDS011;5826;54.756;9.192;2022-12-18T03:26:12;30.20;;;14.40;;
11539;SDS011;5826;54.756;9.192;2022-12-18T03:28:50;27.07;;;14.23;;
11539;SDS011;5826;54.756;9.192;2022-12-18T03:31:18;26.60;;;13.67;;
11539;SDS011;5826;54.756;9.192;2022-12-18T03:33:50;27.30;;;13.30;;
11539;SDS011;5826;54.756;9.192;2022-12-18T03:36:16;26.73;;;14.83;;
11539;SDS011;5826;54.756;9.192;2022-12-18T03:38:42;27.23;;;14.10;;
11539;SDS011;5826;54.756;9.192;2022-12-18T03:44:12;27.17;;;13.73;;
11539;SDS011;5826;54.756;9.192;2022-12-18T03:46:59;30.07;;;13.87;;
11539;SDS011;5826;54.756;9.192;2022-12-18T03:54:33;28.57;;;14.80;;
11539;SDS011;5826;54.756;9.192;2022-12-18T03:57:03;29.20;;;14.77;;
11539;SDS011;5826;54.756;9.192;2022-12-18T03:59:32;29.37;;;14.70;;
11539;SDS011;5826;54.756;9.192;2022-12-18T04:01:59;26.77;;;15.00;;
11539;SDS011;5826;54.756;9.192;2022-12-18T04:04:26;26.80;;;14.77;;
11539;SDS011;5826;54.756;9.192;2022-12-18T04:06:53;30.43;;;14.17;;
11539;SDS011;5826;54.756;9.192;2022-12-18T04:09:20;25.63;;;13.80;;
11539;SDS011;5826;54.756;9.192;2022-12-18T04:11:46;27.97;;;13.83;;
11539;SDS011;5826;54.756;9.192;2022-12-18T04:14:12;30.00;;;14.70;;
11539;SDS011;5826;54.756;9.192;2022-12-18T04:16:38;29.47;;;14.40;;
11539;SDS011;5826;54.756;9.192;2022-12-18T04:19:03;30.50;;;14.77;;
11539;SDS011;5826;54.756;9.192;2022-12-18T04:21:29;30.30;;;15.07;;
11539;SDS011;5826;54.756;9.192;2022-12-18T04:23:55;27.67;;;14.37;;
11539;SDS011;5826;54.756;9.192;2022-12-18T04:26:20;26.40;;;14.03;;
11539;SDS011;5826;54.756;9.192;2022-12-18T04:28:46;24.90;;;13.33;;
11539;SDS011;5826;54.756;9.192;2022-12-18T04:31:12;29.43;;;14.37;;
11539;SDS011;5826;54.756;9.192;2022-12-18T04:33:38;26.83;;;14.83;;
11539;SDS011;5826;54.756;9.192;2022-12-18T04:36:03;30.47;;;14.90;;
11539;SDS011;5826;54.756;9.192;2022-12-18T04:38:29;28.43;;;13.83;;
11539;SDS011;5826;54.756;9.192;2022-12-18T04:40:55;30.93;;;14.27;;
11539;SDS011;5826;54.756;9.192;2022-12-18T04:43:20;29.07;;;14.23;;
11539;SDS011;5826;54.756;9.192;2022-12-18T04:45:46;26.30;;;13.70;;
11539;SDS011;5826;54.756;9.192;2022-12-18T04:48:11;29.23;;;14.23;;
11539;SDS011;5826;54.756;9.192;2022-12-18T04:50:37;26.37;;;13.60;;
11539;SDS011;5826;54.756;9.192;2022-12-18T04:53:03;25.47;;;13.27;;
11539;SDS011;5826;54.756;9.192;2022-12-18T04:55:28;25.47;;;14.33;;
11539;SDS011;5826;54.756;9.192;2022-12-18T04:57:54;28.50;;;13.60;;
11539;SDS011;5826;54.756;9.192;2022-12-18T05:00:19;27.23;;;13.73;;
11539;SDS011;5826;54.756;9.192;2022-12-18T05:02:45;29.57;;;14.40;;
11539;SDS011;5826;54.756;9.192;2022-12-18T05:05:11;30.07;;;15.03;;
11539;SDS011;5826;54.756;9.192;2022-12-18T05:07:36;29.40;;;14.93;;
11539;SDS011;5826;54.756;9.192;2022-12-18T05:10:02;33.10;;;14.93;;
11539;SDS011;5826;54.756;9.192;2022-12-18T05:12:31;31.03;;;14.83;;
11539;SDS011;5826;54.756;9.192;2022-12-18T05:14:57;28.97;;;14.40;;
11539;SDS011;5826;54.756;9.192;2022-12-18T05:17:23;29.33;;;14.93;;
11539;SDS011;5826;54.756;9.192;2022-12-18T05:19:48;28.47;;;14.43;;
11539;SDS011;5826;54.756;9.192;2022-12-18T05:22:13;28.80;;;14.67;;
11539;SDS011;5826;54.756;9.192;2022-12-18T05:24:39;26.77;;;14.20;;
11539;SDS011;5826;54.756;9.192;2022-12-18T05:27:04;27.37;;;14.77;;
11539;SDS011;5826;54.756;9.192;2022-12-18T05:29:30;26.77;;;14.20;;
11539;SDS011;5826;54.756;9.192;2022-12-18T05:31:56;28.60;;;14.37;;
11539;SDS011;5826;54.756;9.192;2022-12-18T05:34:21;26.13;;;14.37;;
11539;SDS011;5826;54.756;9.192;2022-12-18T05:36:47;28.67;;;14.67;;
11539;SDS011;5826;54.756;9.192;2022-12-18T05:39:12;26.07;;;13.57;;
11539;SDS011;5826;54.756;9.192;2022-12-18T05:41:38;28.70;;;14.70;;
11539;SDS011;5826;54.756;9.192;2022-12-18T05:44:03;29.03;;;14.83;;
11539;SDS011;5826;54.756;9.192;2022-12-18T05:46:29;26.67;;;14.67;;
11539;SDS011;5826;54.756;9.192;2022-12-18T05:48:55;28.90;;;13.77;;
11539;SDS011;5826;54.756;9.192;2022-12-18T05:51:25;29.03;;;15.20;;
11539;SDS011;5826;54.756;9.192;2022-12-18T05:53:50;33.00;;;16.37;;
11539;SDS011;5826;54.756;9.192;2022-12-18T05:56:17;33.27;;;16.17;;
11539;SDS011;5826;54.756;9.192;2022-12-18T05:58:44;34.03;;;15.67;;
11539;SDS011;5826;54.756;9.192;2022-12-18T06:01:14;29.73;;;15.30;;
11539;SDS011;5826;54.756;9.192;2022-12-18T06:03:45;30.97;;;16.00;;
11539;SDS011;5826;54.756;9.192;2022-12-18T06:06:15;33.83;;;15.63;;
11539;SDS011;5826;54.756;9.192;2022-12-18T06:08:42;32.60;;;15.50;;
11539;SDS011;5826;54.756;9.192;2022-12-18T06:11:08;35.30;;;16.50;;
11539;SDS011;5826;54.756;9.192;2022-12-18T06:13:33;31.30;;;15.63;;
11539;SDS011;5826;54.756;9.192;2022-12-18T06:16:01;28.37;;;14.90;;
11539;SDS011;5826;54.756;9.192;2022-12-18T06:18:28;30.77;;;15.13;;
11539;SDS011;5826;54.756;9.192;2022-12-18T06:20:54;32.40;;;15.63;;
11539;SDS011;5826;54.756;9.192;2022-12-18T06:23:20;32.33;;;16.37;;
11539;SDS011;5826;54.756;9.192;2022-12-18T06:25:46;31.53;;;15.30;;
11539;SDS011;5826;54.756;9.192;2022-12-18T06:28:11;34.43;;;15.57;;
11539;SDS011;5826;54.756;9.192;2022-12-18T06:30:37;33.03;;;15.73;;
11539;SDS011;5826;54.756;9.192;2022-12-18T06:33:02;35.23;;;15.67;;
11539;SDS011;5826;54.756;9.192;2022-12-18T06:35:28;36.83;;;17.00;;
11539;SDS011;5826;54.756;9.192;2022-12-18T06:37:53;36.50;;;15.73;;
11539;SDS011;5826;54.756;9.192;2022-12-18T06:40:19;33.77;;;15.20;;
11539;SDS011;5826;54.756;9.192;2022-12-18T06:42:45;34.27;;;16.43;;
11539;SDS011;5826;54.756;9.192;2022-12-18T06:45:10;38.80;;;16.27;;
11539;SDS011;5826;54.756;9.192;2022-12-18T06:47:36;32.70;;;15.93;;
11539;SDS011;5826;54.756;9.192;2022-12-18T06:50:02;37.83;;;17.07;;
11539;SDS011;5826;54.756;9.192;2022-12-18T06:52:27;37.30;;;17.10;;
11539;SDS011;5826;54.756;9.192;2022-12-18T06:54:53;40.70;;;16.87;;
11539;SDS011;5826;54.756;9.192;2022-12-18T06:57:18;42.57;;;17.33;;
11539;SDS011;5826;54.756;9.192;2022-12-18T06:59:44;41.87;;;18.27;;
11539;SDS011;5826;54.756;9.192;2022-12-18T07:02:12;40.63;;;17.83;;
11539;SDS011;5826;54.756;9.192;2022-12-18T07:04:39;42.90;;;18.63;;
11539;SDS011;5826;54.756;9.192;2022-12-18T07:07:04;41.57;;;18.40;;
11539;SDS011;5826;54.756;9.192;2022-12-18T07:09:30;38.13;;;16.90;;
11539;SDS011;5826;54.756;9.192;2022-12-18T07:11:55;36.47;;;18.07;;
11539;SDS011;5826;54.756;9.192;2022-12-18T07:14:21;39.23;;;17.60;;
11539;SDS011;5826;54.756;9.192;2022-12-18T07:16:46;39.70;;;17.13;;
11539;SDS011;5826;54.756;9.192;2022-12-18T07:19:12;38.67;;;18.10;;
11539;SDS011;5826;54.756;9.192;2022-12-18T07:21:37;35.43;;;17.40;;
11539;SDS011;5826;54.756;9.192;2022-12-18T07:24:03;39.53;;;16.80;;
11539;SDS011;5826;54.756;9.192;2022-12-18T07:26:29;33.47;;;16.83;;
11539;SDS011;5826;54.756;9.192;2022-12-18T07:28:55;30.63;;;15.40;;
11539;SDS011;5826;54.756;9.192;2022-12-18T07:31:22;34.73;;;16.63;;
11539;SDS011;5826;54.756;9.192;2022-12-18T07:33:48;28.87;;;15.77;;
11539;SDS011;5826;54.756;9.192;2022-12-18T07:36:14;32.23;;;15.90;;
11539;SDS011;5826;54.756;9.192;2022-12-18T07:38:40;30.00;;;15.47;;
11539;SDS011;5826;54.756;9.192;2022-12-18T07:41:10;28.97;;;16.10;;
11539;SDS011;5826;54.756;9.192;2022-12-18T07:43:37;28.67;;;14.23;;
11539;SDS011;5826;54.756;9.192;2022-12-18T07:46:03;28.90;;;15.53;;
11539;SDS011;5826;54.756;9.192;2022-12-18T07:48:29;27.83;;;14.43;;
11539;SDS011;5826;54.756;9.192;2022-12-18T07:50:58;29.33;;;15.13;;
11539;SDS011;5826;54.756;9.192;2022-12-18T07:53:25;29.80;;;14.70;;
11539;SDS011;5826;54.756;9.192;2022-12-18T07:55:54;28.23;;;14.97;;
11539;SDS011;5826;54.756;9.192;2022-12-18T07:58:24;27.10;;;14.30;;
11539;SDS011;5826;54.756;9.192;2022-12-18T08:00:49;29.80;;;15.83;;
11539;SDS011;5826;54.756;9.192;2022-12-18T08:03:15;27.73;;;15.40;;
11539;SDS011;5826;54.756;9.192;2022-12-18T08:05:41;26.13;;;14.30;;
11539;SDS011;5826;54.756;9.192;2022-12-18T08:08:06;27.33;;;14.77;;
11539;SDS011;5826;54.756;9.192;2022-12-18T08:10:32;25.40;;;13.90;;
11539;SDS011;5826;54.756;9.192;2022-12-18T08:12:57;25.57;;;14.00;;
11539;SDS011;5826;54.756;9.192;2022-12-18T08:15:23;26.87;;;14.27;;
11539;SDS011;5826;54.756;9.192;2022-12-18T08:17:48;24.87;;;12.67;;
11539;SDS011;5826;54.756;9.192;2022-12-18T08:20:14;24.67;;;13.50;;
11539;SDS011;5826;54.756;9.192;2022-12-18T08:22:40;24.50;;;13.30;;
11539;SDS011;5826;54.756;9.192;2022-12-18T08:25:06;22.97;;;13.87;;
11539;SDS011;5826;54.756;9.192;2022-12-18T08:27:33;24.17;;;13.67;;
11539;SDS011;5826;54.756;9.192;2022-12-18T08:29:58;23.50;;;12.83;;
11539;SDS011;5826;54.756;9.192;2022-12-18T08:32:24;24.07;;;13.93;;
11539;SDS011;5826;54.756;9.192;2022-12-18T08:34:51;23.53;;;14.10;;
11539;SDS011;5826;54.756;9.192;2022-12-18T08:37:16;24.73;;;13.97;;
11539;SDS011;5826;54.756;9.192;2022-12-18T08:39:42;21.50;;;13.40;;
11539;SDS011;5826;54.756;9.192;2022-12-18T08:42:07;25.57;;;14.27;;
11539;SDS011;5826;54.756;9.192;2022-12-18T08:44:51;21.97;;;12.80;;
11539;SDS011;5826;54.756;9.192;2022-12-18T08:47:17;24.63;;;13.47;;
11539;SDS011;5826;54.756;9.192;2022-12-18T08:49:42;18.57;;;12.60;;
11539;SDS011;5826;54.756;9.192;2022-12-18T08:52:08;21.23;;;13.03;;
11539;SDS011;5826;54.756;9.192;2022-12-18T08:54:34;23.37;;;13.37;;
11539;SDS011;5826;54.756;9.192;2022-12-18T08:56:59;22.63;;;13.63;;
11539;SDS011;5826;54.756;9.192;2022-12-18T08:59:25;20.10;;;12.97;;
11539;SDS011;5826;54.756;9.192;2022-12-18T09:01:53;23.93;;;13.70;;
11539;SDS011;5826;54.756;9.192;2022-12-18T09:04:20;21.57;;;13.00;;
11539;SDS011;5826;54.756;9.192;2022-12-18T09:06:45;22.17;;;13.97;;
11539;SDS011;5826;54.756;9.192;2022-12-18T09:09:11;22.90;;;13.30;;
11539;SDS011;5826;54.756;9.192;2022-12-18T09:11:36;20.20;;;12.80;;
11539;SDS011;5826;54.756;9.192;2022-12-18T09:14:02;22.07;;;13.67;;
11539;SDS011;5826;54.756;9.192;2022-12-18T09:16:28;19.67;;;13.37;;
11539;SDS011;5826;54.756;9.192;2022-12-18T09:18:54;29.87;;;16.70;;
11539;SDS011;5826;54.756;9.192;2022-12-18T09:21:24;23.73;;;13.83;;
11539;SDS011;5826;54.756;9.192;2022-12-18T09:23:52;21.50;;;13.47;;
11539;SDS011;5826;54.756;9.192;2022-12-18T09:26:19;21.67;;;14.80;;
11539;SDS011;5826;54.756;9.192;2022-12-18T09:28:45;22.73;;;14.43;;
11539;SDS011;5826;54.756;9.192;2022-12-18T09:31:11;22.13;;;13.93;;
11539;SDS011;5826;54.756;9.192;2022-12-18T09:33:40;18.77;;;13.03;;
11539;SDS011;5826;54.756;9.192;2022-12-18T09:36:07;23.17;;;13.90;;
11539;SDS011;5826;54.756;9.192;2022-12-18T09:38:35;19.80;;;13.47;;
11539;SDS011;5826;54.756;9.192;2022-12-18T09:43:52;19.13;;;12.10;;
11539;SDS011;5826;54.756;9.192;2022-12-18T09:46:26;19.43;;;12.57;;
11539;SDS011;5826;54.756;9.192;2022-12-18T09:48:56;19.60;;;12.83;;
11539;SDS011;5826;54.756;9.192;2022-12-18T09:51:39;21.13;;;12.33;;
11539;SDS011;5826;54.756;9.192;2022-12-18T09:54:11;16.87;;;11.80;;
11539;SDS011;5826;54.756;9.192;2022-12-18T09:56:49;16.87;;;10.70;;
11539;SDS011;5826;54.756;9.192;2022-12-18T09:59:23;16.23;;;11.23;;
11539;SDS011;5826;54.756;9.192;2022-12-18T10:01:52;16.07;;;10.40;;
11539;SDS011;5826;54.756;9.192;2022-12-18T10:04:17;15.10;;;10.37;;
11539;SDS011;5826;54.756;9.192;2022-12-18T10:06:54;16.37;;;10.53;;
11539;SDS011;5826;54.756;9.192;2022-12-18T10:09:30;14.93;;;10.40;;
11539;SDS011;5826;54.756;9.192;2022-12-18T10:15:02;15.50;;;10.20;;
11539;SDS011;5826;54.756;9.192;2022-12-18T10:17:56;12.60;;;8.83;;
11539;SDS011;5826;54.756;9.192;2022-12-18T10:20:32;12.80;;;8.80;;
11539;SDS011;5826;54.756;9.192;2022-12-18T10:23:16;12.00;;;8.07;;
11539;SDS011;5826;54.756;9.192;2022-12-18T10:26:04;22.30;;;12.27;;
11539;SDS011;5826;54.756;9.192;2022-12-18T10:28:32;20.40;;;11.27;;
11539;SDS011;5826;54.756;9.192;2022-12-18T10:31:05;16.77;;;9.83;;
11539;SDS011;5826;54.756;9.192;2022-12-18T10:33:41;13.50;;;8.57;;
11539;SDS011;5826;54.756;9.192;2022-12-18T10:36:07;12.33;;;9.07;;
11539;SDS011;5826;54.756;9.192;2022-12-18T10:38:33;13.50;;;9.57;;
11539;SDS011;5826;54.756;9.192;2022-12-18T10:41:03;11.93;;;8.30;;
11539;SDS011;5826;54.756;9.192;2022-12-18T10:46:47;15.03;;;9.17;;
11539;SDS011;5826;54.756;9.192;2022-12-18T10:52:38;13.03;;;7.63;;
11539;SDS011;5826;54.756;9.192;2022-12-18T10:55:03;11.40;;;8.13;;
11539;SDS011;5826;54.756;9.192;2022-12-18T10:57:31;14.07;;;9.63;;
11539;SDS011;5826;54.756;9.192;2022-12-18T11:00:01;26.37;;;15.63;;
11539;SDS011;5826;54.756;9.192;2022-12-18T11:02:45;18.63;;;11.77;;
11539;SDS011;5826;54.756;9.192;2022-12-18T11:05:27;12.93;;;9.80;;
11539;SDS011;5826;54.756;9.192;2022-12-18T11:07:54;12.53;;;8.90;;
11539;SDS011;5826;54.756;9.192;2022-12-18T11:10:22;12.47;;;9.03;;
11539;SDS011;5826;54.756;9.192;2022-12-18T11:13:09;14.87;;;10.53;;
11539;SDS011;5826;54.756;9.192;2022-12-18T11:15:36;16.43;;;11.10;;
11539;SDS011;5826;54.756;9.192;2022-12-18T11:18:04;14.13;;;10.13;;
11539;SDS011;5826;54.756;9.192;2022-12-18T11:20:36;17.90;;;13.20;;
11539;SDS011;5826;54.756;9.192;2022-12-18T11:23:05;25.30;;;16.33;;
11539;SDS011;5826;54.756;9.192;2022-12-18T11:25:37;31.77;;;18.60;;
11539;SDS011;5826;54.756;9.192;2022-12-18T11:30:49;25.37;;;14.30;;
11539;SDS011;5826;54.756;9.192;2022-12-18T11:33:32;33.13;;;17.27;;
11539;SDS011;5826;54.756;9.192;2022-12-18T11:35:59;29.50;;;15.57;;
11539;SDS011;5826;54.756;9.192;2022-12-18T11:38:37;18.60;;;11.50;;
11539;SDS011;5826;54.756;9.192;2022-12-18T11:41:09;16.13;;;10.70;;
11539;SDS011;5826;54.756;9.192;2022-12-18T11:44:15;10.07;;;7.73;;
11539;SDS011;5826;54.756;9.192;2022-12-18T11:46:51;13.87;;;9.97;;
11539;SDS011;5826;54.756;9.192;2022-12-18T11:49:33;12.40;;;8.47;;
11539;SDS011;5826;54.756;9.192;2022-12-18T11:54:50;19.70;;;12.23;;
11539;SDS011;5826;54.756;9.192;2022-12-18T12:05:24;12.73;;;8.80;;
11539;SDS011;5826;54.756;9.192;2022-12-18T12:08:21;19.40;;;12.83;;
11539;SDS011;5826;54.756;9.192;2022-12-18T12:14:02;11.50;;;7.93;;
11539;SDS011;5826;54.756;9.192;2022-12-18T12:16:53;21.23;;;14.40;;
11539;SDS011;5826;54.756;9.192;2022-12-18T12:22:04;18.73;;;13.30;;
11539;SDS011;5826;54.756;9.192;2022-12-18T12:24:54;26.40;;;18.33;;
11539;SDS011;5826;54.756;9.192;2022-12-18T12:39:01;40.00;;;22.50;;
11539;SDS011;5826;54.756;9.192;2022-12-18T12:41:06;28.17;;;16.73;;
11539;SDS011;5826;54.756;9.192;2022-12-18T12:43:54;19.47;;;12.33;;
11539;SDS011;5826;54.756;9.192;2022-12-18T12:46:23;27.37;;;14.80;;
11539;SDS011;5826;54.756;9.192;2022-12-18T12:48:55;29.60;;;17.83;;
11539;SDS011;5826;54.756;9.192;2022-12-18T12:51:23;15.40;;;10.13;;
11539;SDS011;5826;54.756;9.192;2022-12-18T12:53:54;16.20;;;9.63;;
11539;SDS011;5826;54.756;9.192;2022-12-18T12:56:22;13.93;;;9.83;;
11539;SDS011;5826;54.756;9.192;2022-12-18T12:59:05;18.77;;;12.97;;
11539;SDS011;5826;54.756;9.192;2022-12-18T13:01:49;14.30;;;9.50;;
11539;SDS011;5826;54.756;9.192;2022-12-18T13:04:52;13.77;;;9.37;;
11539;SDS011;5826;54.756;9.192;2022-12-18T13:07:41;21.00;;;12.20;;
11539;SDS011;5826;54.756;9.192;2022-12-18T13:10:38;12.57;;;8.17;;
11539;SDS011;5826;54.756;9.192;2022-12-18T13:13:06;13.10;;;8.73;;
11539;SDS011;5826;54.756;9.192;2022-12-18T13:18:04;14.07;;;9.80;;
11539;SDS011;5826;54.756;9.192;2022-12-18T13:23:50;26.13;;;15.93;;
11539;SDS011;5826;54.756;9.192;2022-12-18T13:25:56;16.23;;;10.20;;
11539;SDS011;5826;54.756;9.192;2022-12-18T13:30:58;13.87;;;9.40;;
11539;SDS011;5826;54.756;9.192;2022-12-18T13:35:52;14.53;;;10.57;;
11539;SDS011;5826;54.756;9.192;2022-12-18T13:48:24;13.93;;;8.97;;
11539;SDS011;5826;54.756;9.192;2022-12-18T13:50:52;15.97;;;9.90;;
11539;SDS011;5826;54.756;9.192;2022-12-18T13:53:22;13.40;;;9.17;;
11539;SDS011;5826;54.756;9.192;2022-12-18T13:55:53;12.37;;;9.00;;
11539;SDS011;5826;54.756;9.192;2022-12-18T13:58:18;12.77;;;10.07;;
11539;SDS011;5826;54.756;9.192;2022-12-18T14:00:44;15.50;;;10.33;;
11539;SDS011;5826;54.756;9.192;2022-12-18T14:03:20;21.50;;;13.27;;
11539;SDS011;5826;54.756;9.192;2022-12-18T14:05:52;24.93;;;12.47;;
11539;SDS011;5826;54.756;9.192;2022-12-18T14:08:20;28.47;;;14.10;;
11539;SDS011;5826;54.756;9.192;2022-12-18T14:10:46;26.97;;;13.20;;
11539;SDS011;5826;54.756;9.192;2022-12-18T14:13:32;22.67;;;12.03;;
11539;SDS011;5826;54.756;9.192;2022-12-18T14:16:01;18.63;;;10.87;;
11539;SDS011;5826;54.756;9.192;2022-12-18T14:18:34;13.93;;;9.27;;
11539;SDS011;5826;54.756;9.192;2022-12-18T14:21:02;14.10;;;8.87;;
11539;SDS011;5826;54.756;9.192;2022-12-18T14:23:29;13.93;;;9.30;;
11539;SDS011;5826;54.756;9.192;2022-12-18T14:25:58;13.10;;;8.77;;
11539;SDS011;5826;54.756;9.192;2022-12-18T14:28:23;14.87;;;8.97;;
11539;SDS011;5826;54.756;9.192;2022-12-18T14:30:51;12.73;;;8.40;;
11539;SDS011;5826;54.756;9.192;2022-12-18T14:33:19;12.30;;;8.17;;
11539;SDS011;5826;54.756;9.192;2022-12-18T14:38:39;16.67;;;11.23;;
11539;SDS011;5826;54.756;9.192;2022-12-18T14:43:38;13.37;;;8.53;;
11539;SDS011;5826;54.756;9.192;2022-12-18T14:46:06;16.87;;;10.47;;
11539;SDS011;5826;54.756;9.192;2022-12-18T14:48:53;13.00;;;8.60;;
11539;SDS011;5826;54.756;9.192;2022-12-18T14:51:24;11.90;;;8.00;;
11539;SDS011;5826;54.756;9.192;2022-12-18T14:53:54;12.13;;;8.30;;
11539;SDS011;5826;54.756;9.192;2022-12-18T14:58:54;13.47;;;9.07;;
11539;SDS011;5826;54.756;9.192;2022-12-18T15:01:45;12.23;;;9.00;;
11539;SDS011;5826;54.756;9.192;2022-12-18T15:04:27;10.57;;;8.03;;
11539;SDS011;5826;54.756;9.192;2022-12-18T15:09:43;17.23;;;11.00;;
11539;SDS011;5826;54.756;9.192;2022-12-18T15:12:26;25.30;;;14.90;;
11539;SDS011;5826;54.756;9.192;2022-12-18T15:15:43;17.53;;;11.13;;
11539;SDS011;5826;54.756;9.192;2022-12-18T15:20:33;23.73;;;16.00;;
11539;SDS011;5826;54.756;9.192;2022-12-18T15:23:11;16.93;;;11.50;;
11539;SDS011;5826;54.756;9.192;2022-12-18T15:25:43;12.77;;;8.80;;
11539;SDS011;5826;54.756;9.192;2022-12-18T15:28:16;13.13;;;8.70;;
11539;SDS011;5826;54.756;9.192;2022-12-18T15:33:37;16.33;;;10.53;;
11539;SDS011;5826;54.756;9.192;2022-12-18T15:36:11;15.37;;;10.53;;
11539;SDS011;5826;54.756;9.192;2022-12-18T15:38:38;17.17;;;12.70;;
11539;SDS011;5826;54.756;9.192;2022-12-18T15:41:04;17.30;;;12.33;;
11539;SDS011;5826;54.756;9.192;2022-12-18T15:43:32;15.00;;;11.57;;
11539;SDS011;5826;54.756;9.192;2022-12-18T15:46:05;13.07;;;9.87;;
11539;SDS011;5826;54.756;9.192;2022-12-18T15:48:42;14.20;;;10.57;;
11539;SDS011;5826;54.756;9.192;2022-12-18T15:51:19;12.27;;;9.17;;
11539;SDS011;5826;54.756;9.192;2022-12-18T15:53:51;14.07;;;9.83;;
11539;SDS011;5826;54.756;9.192;2022-12-18T15:56:19;13.67;;;8.90;;
11539;SDS011;5826;54.756;9.192;2022-12-18T15:59:07;15.53;;;10.27;;
11539;SDS011;5826;54.756;9.192;2022-12-18T16:01:35;13.20;;;9.27;;
11539;SDS011;5826;54.756;9.192;2022-12-18T16:04:01;15.03;;;10.00;;
11539;SDS011;5826;54.756;9.192;2022-12-18T16:06:26;16.00;;;11.07;;
11539;SDS011;5826;54.756;9.192;2022-12-18T16:08:52;14.20;;;9.83;;
11539;SDS011;5826;54.756;9.192;2022-12-18T16:11:22;13.27;;;8.73;;
11539;SDS011;5826;54.756;9.192;2022-12-18T16:14:24;12.40;;;8.07;;
11539;SDS011;5826;54.756;9.192;2022-12-18T16:16:53;11.33;;;8.37;;
11539;SDS011;5826;54.756;9.192;2022-12-18T16:19:23;11.00;;;8.50;;
11539;SDS011;5826;54.756;9.192;2022-12-18T16:21:50;13.27;;;9.33;;
11539;SDS011;5826;54.756;9.192;2022-12-18T16:24:21;13.33;;;8.53;;
11539;SDS011;5826;54.756;9.192;2022-12-18T16:26:48;13.70;;;9.27;;
11539;SDS011;5826;54.756;9.192;2022-12-18T16:29:16;17.17;;;10.07;;
11539;SDS011;5826;54.756;9.192;2022-12-18T16:31:41;15.57;;;10.70;;